Tiempo atmosférico en la estación meteorológica de Jimena de la Frontera, Cádiz (50 m.)



Fecha
DESCASC
Temp. máxima en grados centígrados (hora)
DESCASC
Temp. mínima en grados centígrados (hora)
DESCASC
Temp. media en grados centígrados
DESCASC
Racha de viento máxima en m/sg (hora)
DESCASC
Velocidad máxima media en intervalos de 10 minutos(hora)
DESCASC
Precipitaciones diarias en mm
DESCASC
Precipitaciones de 00:00 a 06:00 en mm
DESCASC
Precipitaciones de 06:00 a 12:00 en mm
DESCASC
Precipitaciones de 12:00 a 18:00 en mm
DESCASC
Precipitaciones de 18:00 a 24:00 en mm
DESCASC
21-02-2019 16 (13:30) 5.6 (06:30) 10.8 12.22 (16:10) 7.5 (13:20) 0 0 0 0 0
20-02-2019 16.5 (12:50) 5 (06:20) 10.8 11.11 (14:00) 6.94 (12:30) 0 0 0 0 0
19-02-2019 17.6 (13:00) 4.8 (08:30) 11.2 8.33 (13:10) 4.44 (13:10) 0 0 0 0 0
18-02-2019 16.3 (14:10) 7.8 (01:20) 12 13.06 (13:10) 7.78 (13:10) 0 0 0 0 0
17-02-2019 16.8 (13:40) 7.3 (00:00) 12 10.28 (14:50) 5.83 (16:30) 0 0 0 0 0
16-02-2019 15 (14:50) 13 (00:00) 14 14.17 (14:10) 8.61 (14:40) 0 0 0 0 0
15-02-2019 15 (13:50) 5.2 (00:00) 10.1 13.33 (14:30) 7.5 (14:30) 0 0 0 0 0
14-02-2019 15.3 (16:40) 12.4 (00:00) 13.8 11.39 (15:00) 6.39 (14:00) 0 0 0 0 0
13-02-2019 15.8 (16:10) 12.2 (00:00) 14 12.5 (15:20) 7.22 (15:20) 0 0 0 0 0
12-02-2019 16.1 (12:20) 5.3 (00:00) 10.7 14.17 (13:20) 8.33 (13:30) 0 0 0 0 0
11-02-2019 21.8 (15:50) 8.3 (00:00) 15 8.89 (17:00) 5.56 (14:50) 0 0 0 0 0
10-02-2019 18.4 (16:10) 2.5 (00:00) 10.4 12.22 (14:50) 6.94 (15:10) 0 0 0 0 0
09-02-2019 20.5 (14:50) 0.3 (00:00) 10.4 6.67 (16:10) 4.44 (15:20) 0 0 0 0 0
08-02-2019 20.8 (15:10) 2.1 (00:00) 11.4 5.83 (15:50) 3.33 (16:20) 0 0 0 0 0
07-02-2019 21.9 (14:40) 3.5 (00:00) 12.7 9.17 (15:30) 5.83 (15:50) 0 0 0 0 0
06-02-2019 19.9 (15:50) 1.3 (00:00) 10.6 4.17 (15:40) 2.22 (17:40) 0 0 0 0 0
05-02-2019 19 (15:40) 0.1 (00:00) 9.6 4.72 (13:20) 3.06 (16:50) 0 0 0 0 0
04-02-2019 16.9 (14:40) -0.5 (-00:0) 8.2 5.28 (01:50) 2.78 (17:00) 0 0 0 0 0
03-02-2019 15.4 (15:50) 0.2 (00:00) 7.8 7.78 (15:30) 4.44 (17:20) 0 0 0 0 0
02-02-2019 14.3 (14:50) 6.6 (00:00) 10.5 15.56 (09:40) 8.33 (10:00) 0 0 0 0 0
01-02-2019 16 (13:00) 10.4 (00:00) 13.2 20.83 (05:10) 11.11 (06:30) 39.4 5 34.2 0 0.2
31-01-2019 16 (15:20) 12.3 (00:00) 14.2 10.28 (14:50) 6.11 (15:30) 10.2 1.8 3.8 1.4 3.2
30-01-2019 17 (14:30) 11.4 (00:00) 14.2 11.11 (13:10) 6.94 (12:50) 2.4 0 0 0 2.4
29-01-2019 15 (13:10) 11.4 (00:00) 13.2 13.06 (12:20) 8.61 (12:20) 0 0 0 0 0
28-01-2019 16.5 (13:30) 6 (00:00) 11.3 16.39 (15:20) 9.72 (15:40) 0 0 0 0 0
27-01-2019 16.9 (12:00) 6.1 (00:00) 11.5 14.17 (17:20) 7.78 (12:40) 0 0 0 0 0
26-01-2019 21.3 (15:00) 3.5 (00:00) 12.4 5.56 (15:40) 3.06 (15:30) 0 0 0 0 0
25-01-2019 24.1 (16:20) 6.2 (00:00) 15.2 10.83 (12:50) 6.11 (12:30) 0 0 0 0 0
24-01-2019 18.5 (16:10) 10.6 (00:00) 14.6 11.11 (15:00) 6.67 (15:10) 0 0 0 0 0

Gráficas

Temp. máximas Temp. mínimas Temp. medias Precipitaciones Rachas de viento máximas Velocidades máximas media en intervalos de 10 minutos

Datos horarios

Fecha y hora oficial Temperatura (ºC) Velocidad del viento (km/h) Dirección del viento Racha (km/h) Dirección de racha Precipitación (mm) Presión (hPa) Tendencia (hPa) Humedad (%)
2019-02-22 23:00:00 6.6 4 Este 6 Este 0 -- -- 95
2019-02-22 22:00:00 7.7 3 Norte 8 Nordeste 0 -- -- 93
2019-02-22 21:00:00 9.1 4 Nordeste 10 Nordeste 0 -- -- 93
2019-02-22 20:00:00 10.8 4 Nordeste 9 Sudeste 0 -- -- 86
2019-02-22 19:00:00 13.9 8 Sudeste 18 Sudeste 0 -- -- 76
2019-02-22 18:00:00 16.1 5 Sudeste 21 Sudeste 0 -- -- 70
2019-02-22 17:00:00 16.7 12 Sudeste 26 Sudeste 0 -- -- 67
2019-02-22 16:00:00 17.3 15 Sudeste 32 Sudeste 0 -- -- 63
2019-02-22 15:00:00 17.2 15 Sudeste 28 Sudeste 0 -- -- 63
2019-02-22 14:00:00 16.9 14 Sudeste 34 Sudeste 0 -- -- 64
2019-02-22 13:00:00 16.3 15 Sudeste 35 Sudeste 0 -- -- 65
2019-02-22 12:00:00 15.8 16 Sudeste 32 Sudeste 0 -- -- 65
2019-02-22 11:00:00 14.3 14 Este 28 Este 0 -- -- 76
2019-02-22 10:00:00 8.4 0 Calma 3 Oeste 0 -- -- 98
2019-02-22 09:00:00 6.2 0 Calma 5 Norte 0 -- -- 99
2019-02-22 08:00:00 5.2 2 Norte 8 Este 0 -- -- 99
2019-02-22 07:00:00 4.5 0 Calma 6 Nordeste 0 -- -- 97
2019-02-22 06:00:00 4.7 2 Este 5 Nordeste 0 -- -- 97
2019-02-22 05:00:00 5.1 3 Nordeste 6 Norte 0 -- -- 96
2019-02-22 04:00:00 5.5 3 Nordeste 6 Norte 0 -- -- 96
2019-02-22 03:00:00 6.3 3 Nordeste 6 Noroeste 0 -- -- 95
2019-02-22 02:00:00 7.1 3 Noroeste 10 Norte 0 -- -- 94
2019-02-22 01:00:00 7.8 3 Nordeste 6 Norte 0 -- -- 93
2019-02-22 00:00:00 8.4 0 Calma 8 Norte 0 -- -- 91
2019-02-21 23:00:00 8.8 2 Norte 8 Noroeste 0 -- -- 89
2019-02-21 22:00:00 11.9 5 Sudeste 19 Este 0 -- -- 79
2019-02-21 21:00:00 12.8 8 Sudeste 23 Sudeste 0 -- -- 83
2019-02-21 20:00:00 13.2 9 Sudeste 29 Sudeste 0 -- -- 82
2019-02-21 19:00:00 13.7 13 Sudeste 28 Sudeste 0 -- -- 79
2019-02-21 18:00:00 15 13 Sudeste 33 Sudeste 0 -- -- 67
2019-02-21 17:00:00 15.7 15 Sudeste 44 Este 0 -- -- 67
2019-02-21 16:00:00 15.8 22 Este 41 Sudeste 0 -- -- 68
2019-02-21 15:00:00 15.5 19 Este 42 Este 0 -- -- 69
2019-02-21 14:00:00 15.3 22 Sudeste 43 Sudeste 0 -- -- 67
2019-02-21 13:00:00 15.6 22 Sudeste 43 Este 0 -- -- 66
2019-02-21 12:00:00 15.4 17 Este 39 Este 0 -- -- 70
2019-02-21 11:00:00 14.7 14 Este 37 Sudeste 0 -- -- 69
2019-02-21 10:00:00 13.7 19 Este 35 Sudeste 0 -- -- 75
2019-02-21 09:00:00 13.1 13 Sudeste 25 Este 0 -- -- 75
2019-02-21 08:00:00 12.3 14 Este 31 Este 0 -- -- 82
2019-02-21 07:00:00 5.9 5 Noroeste 10 Noroeste 0 -- -- 97
2019-02-21 06:00:00 5.9 3 Noroeste 10 Noroeste 0 -- -- 96
2019-02-21 05:00:00 6.3 4 Norte 17 Este 0 -- -- 96
2019-02-21 04:00:00 6.4 4 Noroeste 9 Este 0 -- -- 95
2019-02-21 03:00:00 6.6 4 Noroeste 12 Norte 0 -- -- 94
2019-02-21 02:00:00 7.3 5 Noroeste 10 Este 0 -- -- 93
2019-02-21 01:00:00 9.5 3 Nordeste 21 Sudeste 0 -- -- 83
2019-02-21 00:00:00 9.1 4 Nordeste 13 Este 0 -- -- 90
2019-02-20 23:00:00 12.6 9 Sudeste 22 Sudeste 0 -- -- 78
2019-02-20 22:00:00 12.7 10 Sudeste 26 Este 0 -- -- 77
2019-02-20 21:00:00 12.9 13 Sudeste 27 Este 0 -- -- 82
2019-02-20 20:00:00 13.4 12 Sudeste 26 Sudeste 0 -- -- 81
2019-02-20 19:00:00 13.7 15 Sudeste 30 Este 0 -- -- 79
2019-02-20 18:00:00 14.7 15 Sudeste 38 Sudeste 0 -- -- 73
2019-02-20 17:00:00 15.5 19 Sudeste 39 Este 0 -- -- 70
2019-02-20 16:00:00 16.2 15 Sudeste 37 Este 0 -- -- 70
2019-02-20 15:00:00 16 22 Sudeste 38 Este 0 -- -- 70
2019-02-20 14:00:00 16.3 23 Este 40 Este 0 -- -- 64
2019-02-20 13:00:00 16.3 23 Este 37 Sudeste 0 -- -- 65
2019-02-20 12:00:00 16 20 Sudeste 39 Sudeste 0 -- -- 63
2019-02-20 11:00:00 14.9 17 Este 36 Este 0 -- -- 72
2019-02-20 10:00:00 10.1 3 Oeste 9 Este 0 -- -- 98
2019-02-20 09:00:00 7.8 0 Calma 3 Noroeste 0 -- -- 99
2019-02-20 08:00:00 7 0 Calma 6 Sudoeste 0 -- -- 99
2019-02-20 07:00:00 5.6 3 Nordeste 5 Nordeste 0 -- -- 98
2019-02-20 06:00:00 5.1 3 Nordeste 5 Sudeste 0 -- -- 97
2019-02-20 05:00:00 5.6 0 Calma 4 Sur 0 -- -- 97
2019-02-20 04:00:00 6.2 0 Calma 3 Este 0 -- -- 96
2019-02-20 03:00:00 7 0 Calma 3 Norte 0 -- -- 95
2019-02-20 02:00:00 8.1 0 Calma 7 Nordeste 0 -- -- 94
2019-02-20 01:00:00 8.5 3 Nordeste 5 Nordeste 0 -- -- 95
2019-02-20 00:00:00 9.1 3 Norte 5 Norte 0 -- -- 94
2019-02-19 23:00:00 9.2 2 Nordeste 9 Nordeste 0 -- -- 94
2019-02-19 22:00:00 9.4 8 Nordeste 11 Nordeste 0 -- -- 93
2019-02-19 21:00:00 9.9 5 Nordeste 9 Nordeste 0 -- -- 91
2019-02-19 20:00:00 11.2 4 Nordeste 6 Nordeste 0 -- -- 86
2019-02-19 19:00:00 14 5 Sudeste 17 Sudeste 0 -- -- 78
2019-02-19 18:00:00 15.6 7 Sudeste 23 Sudeste 0 -- -- 70
2019-02-19 17:00:00 16.2 14 Sudeste 24 Sudeste 0 -- -- 65
2019-02-19 16:00:00 16.6 13 Sudeste 26 Sudeste 0 -- -- 64
2019-02-19 15:00:00 17.3 15 Sudeste 28 Sudeste 0 -- -- 58
2019-02-19 14:00:00 17.4 13 Sudeste 30 Sudeste 0 -- -- 55
2019-02-19 13:00:00 17.6 12 Sudeste 23 Este 0 -- -- 51
2019-02-19 12:00:00 16.3 5 Sur 10 Sur 0 -- -- 61
2019-02-19 11:00:00 12.6 2 Noroeste 5 Oeste 0 -- -- 77
2019-02-19 10:00:00 8.6 0 Calma 3 Sudeste 0 -- -- 89
2019-02-19 09:00:00 5.4 3 Nordeste 6 Este 0 -- -- 97
2019-02-19 08:00:00 5 4 Este 6 Este 0 -- -- 96
2019-02-19 07:00:00 5.8 4 Este 6 Nordeste 0 -- -- 95
2019-02-19 06:00:00 7 3 Nordeste 8 Este 0 -- -- 94
2019-02-19 05:00:00 7.9 6 Nordeste 9 Nordeste 0 -- -- 94
2019-02-19 04:00:00 9 0 Calma 8 Norte 0 -- -- 92
2019-02-19 03:00:00 9.9 5 Nordeste 9 Nordeste 0 -- -- 89
2019-02-19 02:00:00 10.6 2 Nordeste 6 Norte 0 -- -- 89
2019-02-19 01:00:00 10.9 3 Nordeste 8 Norte 0 -- -- 88
2019-02-19 00:00:00 11 4 Nordeste 9 Nordeste 0 -- -- 90
2019-02-18 23:00:00 12.2 0 Calma 11 Sudeste 0 -- -- 87
2019-02-18 22:00:00 13.5 2 Este 21 Sudeste 0 -- -- 83
2019-02-18 21:00:00 14.2 17 Sudeste 29 Sudeste 0 -- -- 76
2019-02-18 20:00:00 13.9 7 Sur 29 Sudeste 0 -- -- 79
2019-02-18 19:00:00 14.3 19 Este 35 Sudeste 0 -- -- 74
2019-02-18 18:00:00 14.5 16 Sudeste 38 Este 0 -- -- 75
2019-02-18 17:00:00 14.7 19 Sudeste 35 Sudeste 0 -- -- 78
2019-02-18 16:00:00 15.3 15 Sudeste 39 Este 0 -- -- 71
2019-02-18 15:00:00 16 20 Sudeste 42 Sudeste 0 -- -- 70
2019-02-18 14:00:00 16 27 Este 47 Este 0 -- -- 68
2019-02-18 13:00:00 15.6 25 Este 44 Sudeste 0 -- -- 69
2019-02-18 12:00:00 15.6 21 Este 41 Sudeste 0 -- -- 70
2019-02-18 11:00:00 14.3 18 Sudeste 38 Este 0 -- -- 77
2019-02-18 10:00:00 13.7 23 Este 40 Este 0 -- -- 78
2019-02-18 09:00:00 13.5 17 Este 31 Este 0 -- -- 75
2019-02-18 08:00:00 13.2 15 Este 35 Este 0 -- -- 75
2019-02-18 07:00:00 13.2 14 Este 28 Este 0 -- -- 77
2019-02-18 06:00:00 13.2 13 Sudeste 27 Este 0 -- -- 80
2019-02-18 05:00:00 10.1 4 Sudeste 15 Este 0 -- -- 95
2019-02-18 04:00:00 9.3 3 Noroeste 6 Norte 0 -- -- 95
2019-02-18 03:00:00 8.8 0 Calma 8 Noroeste 0 -- -- 96
2019-02-18 02:00:00 8 0 Calma 8 Norte 0 -- -- 96
2019-02-18 01:00:00 7.9 3 Norte 7 Norte 0 -- -- 95
2019-02-18 00:00:00 8.8 3 Nordeste 8 Norte 0 -- -- 92
2019-02-17 23:00:00 10.6 5 Noroeste 14 Sudeste 0 -- -- 88
2019-02-17 22:00:00 13.2 6 Sudeste 19 Sudeste 0 -- -- 83
2019-02-17 21:00:00 13.7 11 Sudeste 19 Sudeste 0 -- -- 81
2019-02-17 20:00:00 13.6 11 Sudeste 23 Sudeste 0 -- -- 82
2019-02-17 19:00:00 13.8 14 Sudeste 29 Sudeste 0 -- -- 81
2019-02-17 18:00:00 14.5 18 Sudeste 31 Sudeste 0 -- -- 78
2019-02-17 17:00:00 15.7 17 Sudeste 33 Sudeste 0 -- -- 72
2019-02-17 16:00:00 16.6 16 Sudeste 36 Sudeste 0 -- -- 66
2019-02-17 15:00:00 16.8 16 Sudeste 37 Sudeste 0 -- -- 66
2019-02-17 14:00:00 16.4 19 Sudeste 35 Sudeste 0 -- -- 67
2019-02-17 13:00:00 15.8 15 Sudeste 31 Este 0 -- -- 73
2019-02-17 12:00:00 15.4 20 Este 33 Este 0 -- -- 74
2019-02-17 11:00:00 14.5 15 Sudeste 33 Este 0 -- -- 76
2019-02-17 10:00:00 10.4 4 Norte 14 Este 0 -- -- 92
2019-02-17 09:00:00 8 3 Oeste 10 Noroeste 0 -- -- 95
2019-02-17 08:00:00 7.3 6 Noroeste 13 Nordeste 0 -- -- 94
2019-02-17 07:00:00 8.1 4 Noroeste 11 Sudeste 0 -- -- 92
2019-02-17 06:00:00 12 6 Este 21 Este 0 -- -- 85
2019-02-17 05:00:00 12.8 10 Este 21 Este 0 -- -- 83
2019-02-17 04:00:00 13.1 10 Sudeste 19 Este 0 -- -- 84
2019-02-17 03:00:00 13.3 12 Sudeste 25 Este 0 -- -- 84
2019-02-17 02:00:00 13.3 8 Sudeste 29 Sudeste 0 -- -- 83
2019-02-17 01:00:00 13.6 11 Sudeste 28 Sudeste 0 -- -- 82
2019-02-17 00:00:00 13.4 11 Este 33 Este 0 -- -- 81
2019-02-16 23:00:00 13.3 13 Sudeste 35 Sudeste 0 -- -- 81
2019-02-16 22:00:00 13.3 13 Sudeste 25 Este 0 -- -- 82
2019-02-16 21:00:00 13.6 13 Sudeste 35 Sudeste 0 -- -- 82
2019-02-16 20:00:00 13.8 21 Sudeste 40 Este 0 -- -- 80
2019-02-16 19:00:00 13.9 19 Sudeste 35 Este 0 -- -- 80
2019-02-16 18:00:00 14.1 22 Este 42 Sudeste 0 -- -- 79
2019-02-16 17:00:00 14.3 21 Sudeste 44 Este 0 -- -- 78
2019-02-16 16:00:00 14.6 22 Este 47 Este 0 -- -- 77
2019-02-16 15:00:00 14.9 26 Este 51 Este 0 -- -- 76
2019-02-16 14:00:00 14.7 27 Este 45 Este 0 -- -- 76
2019-02-16 13:00:00 14.5 17 Este 37 Este 0 -- -- 79
2019-02-16 12:00:00 14.4 20 Este 45 Este 0 -- -- 78
2019-02-16 11:00:00 14.2 22 Este 44 Este 0 -- -- 79
2019-02-16 10:00:00 14.1 15 Este 32 Este 0 -- -- 76
2019-02-16 09:00:00 13.5 13 Este 30 Este 0 -- -- 75
2019-02-16 08:00:00 13.2 9 Este 27 Este 0 -- -- 78
2019-02-16 07:00:00 13.1 13 Este 25 Este 0 -- -- 78
2019-02-16 06:00:00 13.3 9 Este 28 Este 0 -- -- 81
2019-02-16 05:00:00 13.4 10 Este 37 Este 0 -- -- 81
2019-02-16 04:00:00 13.7 16 Este 36 Este 0 -- -- 80
2019-02-16 03:00:00 13.6 9 Sudeste 36 Este 0 -- -- 80
2019-02-16 02:00:00 13.8 10 Sudeste 42 Este 0 -- -- 80
2019-02-16 01:00:00 13.9 14 Sudeste 30 Este 0 -- -- 79
2019-02-16 00:00:00 13.6 16 Este 36 Este 0 -- -- 80
2019-02-15 23:00:00 13.8 17 Este 39 Este 0 -- -- 75
2019-02-15 22:00:00 13.7 16 Sudeste 39 Este 0 -- -- 76
2019-02-15 21:00:00 13.3 23 Este 43 Este 0 -- -- 74
2019-02-15 20:00:00 12.8 5 Sudeste 22 Este 0 -- -- 81
2019-02-15 19:00:00 13.2 10 Sudeste 31 Sudeste 0 -- -- 80
2019-02-15 18:00:00 14.2 15 Sudeste 42 Sudeste 0 -- -- 73
2019-02-15 17:00:00 14.3 24 Sudeste 46 Sudeste 0 -- -- 74
2019-02-15 16:00:00 14.9 19 Sudeste 42 Sudeste 0 -- -- 71
2019-02-15 15:00:00 14.4 26 Sudeste 48 Sudeste 0 -- -- 74
2019-02-15 14:00:00 14.9 22 Sudeste 43 Este 0 -- -- 75
2019-02-15 13:00:00 14.7 22 Este 40 Este 0 -- -- 74
2019-02-15 12:00:00 14.6 17 Sudeste 34 Sudeste 0 -- -- 71
2019-02-15 11:00:00 14.3 14 Sudeste 29 Este 0 -- -- 71
2019-02-15 10:00:00 12.7 13 Sudeste 23 Este 0 -- -- 78
2019-02-15 09:00:00 6.2 8 Noroeste 25 Sudeste 0 -- -- 95
2019-02-15 08:00:00 5.7 5 Norte 12 Nordeste 0 -- -- 98
2019-02-15 07:00:00 5.5 5 Noroeste 10 Oeste 0 -- -- 97
2019-02-15 06:00:00 5.3 6 Noroeste 9 Noroeste 0 -- -- 96
2019-02-15 05:00:00 5.6 4 Noroeste 10 Norte 0 -- -- 95
2019-02-15 04:00:00 5.7 4 Noroeste 9 Noroeste 0 -- -- 94
2019-02-15 03:00:00 6.3 2 Norte 8 Noroeste 0 -- -- 91
2019-02-15 02:00:00 7.5 3 Norte 16 Este 0 -- -- 87
2019-02-15 01:00:00 12.8 11 Este 20 Este 0 -- -- 72
2019-02-15 00:00:00 12.9 8 Este 21 Sudeste 0 -- -- 70
2019-02-14 23:00:00 13.3 9 Este 23 Este 0 -- -- 65
2019-02-14 22:00:00 13 10 Este 26 Sudeste 0 -- -- 65
2019-02-14 21:00:00 12.9 10 Sudeste 24 Este 0 -- -- 72
2019-02-14 20:00:00 12.4 10 Este 30 Sudeste 0 -- -- 81
2019-02-14 19:00:00 13.1 15 Sudeste 27 Sudeste 0 -- -- 80
2019-02-14 18:00:00 14.6 13 Sudeste 39 Sudeste 0 -- -- 71
2019-02-14 17:00:00 15 18 Sudeste 37 Este 0 -- -- 69
2019-02-14 16:00:00 14.5 18 Sudeste 35 Este 0 -- -- 71
2019-02-14 15:00:00 14.1 21 Este 41 Sudeste 0 -- -- 75
2019-02-14 14:00:00 14.2 23 Este 38 Este 0 -- -- 74
2019-02-14 13:00:00 13.9 17 Sudeste 39 Este 0 -- -- 76
2019-02-14 12:00:00 13.6 19 Este 39 Este 0 -- -- 76
2019-02-14 11:00:00 13.7 16 Este 33 Nordeste 0 -- -- 75
2019-02-14 10:00:00 13.2 17 Este 33 Este 0 -- -- 75
2019-02-14 09:00:00 13 15 Este 35 Sudeste 0 -- -- 75
2019-02-14 08:00:00 12.9 20 Este 34 Este 0 -- -- 75
2019-02-14 07:00:00 12.9 15 Este 39 Sudeste 0 -- -- 76
2019-02-14 06:00:00 12.9 19 Este 33 Este 0 -- -- 77
2019-02-14 05:00:00 12.8 15 Este 33 Este 0 -- -- 77
2019-02-14 04:00:00 12.6 12 Este 27 Este 0 -- -- 79
2019-02-14 03:00:00 12.7 15 Este 29 Este 0 -- -- 79
2019-02-14 02:00:00 12.9 13 Este 34 Este 0 -- -- 78
2019-02-14 01:00:00 13.3 11 Sudeste 31 Este 0 -- -- 74
2019-02-14 00:00:00 13 15 Este 30 Este 0 -- -- 76
2019-02-13 23:00:00 12.9 14 Este 28 Sudeste 0 -- -- 74
2019-02-13 22:00:00 12.8 15 Sudeste 26 Este 0 -- -- 75
2019-02-13 21:00:00 12.4 10 Sudeste 24 Sudeste 0 -- -- 77
2019-02-13 20:00:00 12.6 10 Sudeste 24 Sudeste 0 -- -- 79
2019-02-13 19:00:00 13.2 13 Sudeste 35 Sudeste 0 -- -- 78
2019-02-13 18:00:00 14.3 15 Sudeste 37 Sudeste 0 -- -- 74
2019-02-13 17:00:00 15.3 17 Este 44 Este 0 -- -- 69
2019-02-13 16:00:00 15.5 25 Este 45 Este 0 -- -- 65
2019-02-13 15:00:00 14.8 20 Este 42 Sudeste 0 -- -- 68
2019-02-13 14:00:00 14.7 24 Este 42 Sudeste 0 -- -- 70
2019-02-13 13:00:00 14.7 21 Sudeste 39 Sudeste 0 -- -- 70
2019-02-13 12:00:00 14.6 15 Este 34 Sudeste 0 -- -- 71
2019-02-13 11:00:00 13.8 16 Sudeste 33 Este 0 -- -- 73
2019-02-13 10:00:00 13.5 18 Este 31 Este 0 -- -- 71
2019-02-13 09:00:00 12.6 9 Este 19 Nordeste 0 -- -- 73
2019-02-13 08:00:00 12.5 10 Este 29 Sudeste 0 -- -- 73
2019-02-13 07:00:00 13 13 Este 36 Este 0 -- -- 74
2019-02-13 06:00:00 12.9 10 Sudeste 28 Este 0 -- -- 74
2019-02-13 05:00:00 13 15 Este 39 Este 0 -- -- 74
2019-02-13 04:00:00 13.1 12 Este 30 Sudeste 0 -- -- 75
2019-02-13 03:00:00 12.9 12 Sudeste 35 Este 0 -- -- 76
2019-02-13 02:00:00 13 14 Este 38 Sudeste 0 -- -- 75
2019-02-13 01:00:00 13.3 17 Este 35 Sudeste 0 -- -- 68
2019-02-13 00:00:00 13.8 19 Sudeste 37 Este 0 -- -- 61
2019-02-12 23:00:00 13.5 15 Sudeste 34 Este 0 -- -- 59
2019-02-12 22:00:00 13.5 17 Sudeste 35 Este 0 -- -- 56
2019-02-12 21:00:00 13.5 15 Sudeste 33 Este 0 -- -- 55
2019-02-12 20:00:00 13.4 13 Sudeste 26 Sudeste 0 -- -- 64
2019-02-12 19:00:00 13.9 15 Sudeste 37 Este 0 -- -- 69
2019-02-12 18:00:00 14.9 19 Este 44 Este 0 -- -- 70
2019-02-12 17:00:00 15 18 Este 41 Este 0 -- -- 73
2019-02-12 16:00:00 14.7 22 Este 43 Este 0 -- -- 77
2019-02-12 15:00:00 14.8 21 Este 50 Este 0 -- -- 79
2019-02-12 14:00:00 15 27 Este 51 Este 0 -- -- 80
2019-02-12 13:00:00 15.5 27 Este 50 Sudeste 0 -- -- 78
2019-02-12 12:00:00 16 27 Este 47 Este 0 -- -- 78
2019-02-12 11:00:00 15 23 Este 42 Este 0 -- -- 84
2019-02-12 10:00:00 14.9 20 Este 41 Este 0 -- -- 82
2019-02-12 09:00:00 13.9 15 Este 27 Este 0 -- -- 86
2019-02-12 08:00:00 8.7 7 Nordeste 18 Nordeste 0 -- -- 100
2019-02-12 07:00:00 5.9 3 Norte 10 Norte 0 -- -- 99
2019-02-12 06:00:00 5.4 3 Noroeste 7 Noroeste 0 -- -- 98
2019-02-12 05:00:00 5.5 4 Este 6 Este 0 -- -- 97
2019-02-12 04:00:00 6 2 Nordeste 6 Este 0 -- -- 97
2019-02-12 03:00:00 6.6 3 Nordeste 7 Nordeste 0 -- -- 97
2019-02-12 02:00:00 7.2 0 Calma 7 Nordeste 0 -- -- 96
2019-02-12 01:00:00 7.7 2 Este 6 Nordeste 0 -- -- 94
2019-02-12 00:00:00 8.6 3 Este 8 Nordeste 0 -- -- 93
2019-02-11 23:00:00 9.4 3 Este 9 Nordeste 0 -- -- 91
2019-02-11 22:00:00 10.3 6 Nordeste 9 Nordeste 0 -- -- 88
2019-02-11 21:00:00 12.7 0 Calma 11 Norte 0 -- -- 80
2019-02-11 20:00:00 14.1 3 Nordeste 14 Noroeste 0 -- -- 75
2019-02-11 19:00:00 17.8 11 Noroeste 21 Oeste 0 -- -- 62
2019-02-11 18:00:00 20.1 13 Noroeste 31 Oeste 0 -- -- 54
2019-02-11 17:00:00 20.8 18 Oeste 32 Oeste 0 -- -- 51
2019-02-11 16:00:00 21.5 17 Oeste 30 Oeste 0 -- -- 54
2019-02-11 15:00:00 21.1 18 Oeste 30 Oeste 0 -- -- 57
2019-02-11 14:00:00 20.9 15 Oeste 30 Oeste 0 -- -- 58
2019-02-11 13:00:00 20.5 13 Noroeste 30 Oeste 0 -- -- 57
2019-02-11 12:00:00 18.9 12 Oeste 27 Oeste 0 -- -- 68
2019-02-11 11:00:00 17.6 13 Noroeste 22 Oeste 0 -- -- 74
2019-02-11 10:00:00 15.9 0 Calma 5 Este 0 -- -- 79
2019-02-11 09:00:00 10.4 3 Nordeste 11 Norte 0 -- -- 91
2019-02-11 08:00:00 11.3 3 Nordeste 13 Noroeste 0 -- -- 87
2019-02-11 07:00:00 12.4 9 Noroeste 14 Noroeste 0 -- -- 84
2019-02-11 06:00:00 13 5 Noroeste 13 Noroeste 0 -- -- 81
2019-02-11 05:00:00 13.9 9 Norte 27 Noroeste 0 -- -- 78
2019-02-11 04:00:00 12.4 8 Noroeste 19 Noroeste 0 -- -- 84
2019-02-11 03:00:00 8.3 4 Norte 8 Noroeste 0 -- -- 87
2019-02-11 02:00:00 11.3 5 Noroeste 12 Noroeste 0 -- -- 82
2019-02-11 01:00:00 10.9 6 Norte 14 Noroeste 0 -- -- 80
2019-02-11 00:00:00 11.7 5 Noroeste 13 Norte 0 -- -- 78
2019-02-10 23:00:00 10.1 4 Oeste 10 Oeste 0 -- -- 84
2019-02-10 22:00:00 10.3 2 Nordeste 10 Noroeste 0 -- -- 81
2019-02-10 21:00:00 12.4 4 Oeste 10 Noroeste 0 -- -- 75
2019-02-10 20:00:00 13.9 6 Noroeste 21 Noroeste 0 -- -- 69
2019-02-10 19:00:00 15.7 12 Noroeste 24 Noroeste 0 -- -- 63
2019-02-10 18:00:00 17.5 15 Noroeste 29 Noroeste 0 -- -- 58
2019-02-10 17:00:00 17.4 19 Noroeste 41 Noroeste 0 -- -- 59
2019-02-10 16:00:00 18.2 19 Noroeste 37 Noroeste 0 -- -- 60
2019-02-10 15:00:00 18 20 Noroeste 44 Noroeste 0 -- -- 59
2019-02-10 14:00:00 17.7 25 Noroeste 39 Noroeste 0 -- -- 58
2019-02-10 13:00:00 17.3 18 Noroeste 36 Noroeste 0 -- -- 57
2019-02-10 12:00:00 15.9 20 Noroeste 38 Noroeste 0 -- -- 60
2019-02-10 11:00:00 14.7 19 Noroeste 41 Noroeste 0 -- -- 65
2019-02-10 10:00:00 8.3 0 Calma 7 Oeste 0 -- -- 99
2019-02-10 09:00:00 4.3 2 Noroeste 8 Oeste 0 -- -- 100
2019-02-10 08:00:00 3.2 3 Este 8 Este 0 -- -- 99
2019-02-10 07:00:00 2.7 3 Nordeste 8 Este 0 -- -- 98
2019-02-10 06:00:00 2.6 2 Este 8 Nordeste 0 -- -- 97
2019-02-10 05:00:00 2.5 4 Nordeste 8 Nordeste 0 -- -- 97
2019-02-10 04:00:00 2.6 3 Nordeste 8 Nordeste 0 -- -- 97
2019-02-10 03:00:00 3 4 Este 9 Nordeste 0 -- -- 96
2019-02-10 02:00:00 3.8 2 Nordeste 10 Este 0 -- -- 96
2019-02-10 01:00:00 4.3 3 Nordeste 9 Nordeste 0 -- -- 96
2019-02-10 00:00:00 5 3 Nordeste 9 Nordeste 0 -- -- 94
2019-02-09 23:00:00 6.1 2 Este 10 Nordeste 0 -- -- 93
2019-02-09 22:00:00 6.7 7 Nordeste 9 Nordeste 0 -- -- 91
2019-02-09 21:00:00 8.7 5 Este 9 Nordeste 0 -- -- 86
2019-02-09 20:00:00 12.6 3 Sur 9 Oeste 0 -- -- 74
2019-02-09 19:00:00 15.2 4 Este 17 Sudoeste 0 -- -- 66
2019-02-09 18:00:00 18.6 8 Sudoeste 19 Sudoeste 0 -- -- 52
2019-02-09 17:00:00 19.7 12 Oeste 24 Oeste 0 -- -- 45
2019-02-09 16:00:00 19.8 15 Oeste 23 Oeste 0 -- -- 39
2019-02-09 15:00:00 20.2 15 Sudoeste 21 Sudoeste 0 -- -- 46
2019-02-09 14:00:00 20.1 7 Sur 17 Sur 0 -- -- 48
2019-02-09 13:00:00 17.9 4 Sudeste 10 Sudoeste 0 -- -- 61
2019-02-09 12:00:00 14.5 4 Sudoeste 8 Sur 0 -- -- 65
2019-02-09 11:00:00 9.5 0 Calma 4 Nordeste 0 -- -- 85
2019-02-09 10:00:00 5.3 2 Sudeste 8 Nordeste 0 -- -- 99
2019-02-09 09:00:00 1.1 4 Este 6 Este 0 -- -- 100
2019-02-09 08:00:00 0.3 3 Sudeste 6 Nordeste 0 -- -- 98
2019-02-09 07:00:00 0.8 4 Este 6 Este 0 -- -- 98
2019-02-09 06:00:00 1.3 4 Nordeste 7 Este 0 -- -- 99
2019-02-09 05:00:00 1.9 0 Calma 5 Nordeste 0 -- -- 98
2019-02-09 04:00:00 2.4 0 Calma 5 Nordeste 0 -- -- 97
2019-02-09 03:00:00 3.1 2 Norte 6 Este 0 -- -- 97
2019-02-09 02:00:00 4.1 2 Nordeste 6 Este 0 -- -- 97
2019-02-09 01:00:00 4.5 6 Nordeste 8 Nordeste 0 -- -- 97
2019-02-09 00:00:00 5.4 3 Nordeste 9 Nordeste 0 -- -- 96
2019-02-08 23:00:00 6.3 3 Nordeste 8 Nordeste 0 -- -- 95
2019-02-08 22:00:00 7.6 3 Nordeste 10 Nordeste 0 -- -- 94
2019-02-08 21:00:00 9.1 4 Nordeste 10 Nordeste 0 -- -- 90
2019-02-08 20:00:00 11.7 6 Nordeste 9 Nordeste 0 -- -- 84
2019-02-08 19:00:00 15 2 Noroeste 14 Sudeste 0 -- -- 75
2019-02-08 18:00:00 17.1 10 Sudeste 21 Este 0 -- -- 72
2019-02-08 17:00:00 19.1 8 Sudeste 19 Sudeste 0 -- -- 64
2019-02-08 16:00:00 18.7 12 Sudeste 21 Sudeste 0 -- -- 62
2019-02-08 15:00:00 20.7 6 Sudoeste 20 Sudoeste 0 -- -- 47
2019-02-08 14:00:00 19.9 4 Sudeste 9 Sudeste 0 -- -- 49
2019-02-08 13:00:00 18.6 6 Sudoeste 9 Sur 0 -- -- 60
2019-02-08 12:00:00 15.3 4 Sudoeste 6 Sudoeste 0 -- -- 66
2019-02-08 11:00:00 11.3 0 Calma 4 Oeste 0 -- -- 75
2019-02-08 10:00:00 6.8 0 Calma 4 Noroeste 0 -- -- 90
2019-02-08 09:00:00 5.1 3 Nordeste 6 Nordeste 0 -- -- 93
2019-02-08 08:00:00 2.3 3 Nordeste 6 Nordeste 0 -- -- 97
2019-02-08 07:00:00 2.7 2 Nordeste 6 Nordeste 0 -- -- 96
2019-02-08 06:00:00 3 3 Nordeste 7 Nordeste 0 -- -- 96
2019-02-08 05:00:00 3.5 2 Nordeste 9 Nordeste 0 -- -- 95
2019-02-08 04:00:00 4 3 Nordeste 8 Nordeste 0 -- -- 94
2019-02-08 03:00:00 4.7 3 Nordeste 10 Nordeste 0 -- -- 93
2019-02-08 02:00:00 5 7 Nordeste 10 Nordeste 0 -- -- 92
2019-02-08 01:00:00 5.5 8 Este 10 Nordeste 0 -- -- 92
2019-02-08 00:00:00 6.6 7 Este 12 Nordeste 0 -- -- 90
2019-02-07 23:00:00 7.5 7 Este 12 Nordeste 0 -- -- 89
2019-02-07 22:00:00 9.5 3 Nordeste 8 Este 0 -- -- 83
2019-02-07 21:00:00 10.8 2 Norte 7 Oeste 0 -- -- 80
2019-02-07 20:00:00 13.2 3 Este 14 Oeste 0 -- -- 73
2019-02-07 19:00:00 17.7 6 Noroeste 23 Noroeste 0 -- -- 57
2019-02-07 18:00:00 20 14 Noroeste 29 Noroeste 0 -- -- 52
2019-02-07 17:00:00 20.8 18 Noroeste 32 Oeste 0 -- -- 49
2019-02-07 16:00:00 21.8 16 Noroeste 33 Oeste 0 -- -- 45
2019-02-07 15:00:00 21.5 17 Oeste 31 Noroeste 0 -- -- 46
2019-02-07 14:00:00 21.5 20 Noroeste 32 Oeste 0 -- -- 45
2019-02-07 13:00:00 20.9 6 Noroeste 20 Noroeste 0 -- -- 48
2019-02-07 12:00:00 17.5 3 Nordeste 6 Oeste 0 -- -- 68
2019-02-07 11:00:00 13.2 0 Calma 2 Norte 0 -- -- 80
2019-02-07 10:00:00 7.2 0 Calma 4 Norte 0 -- -- 99
2019-02-07 09:00:00 4.4 3 Este 5 Este 0 -- -- 99
2019-02-07 08:00:00 3.8 3 Este 6 Este 0 -- -- 99
2019-02-07 07:00:00 3.7 0 Calma 8 Este 0 -- -- 99
2019-02-07 06:00:00 3.6 0 Calma 7 Este 0 -- -- 98
2019-02-07 05:00:00 4 5 Este 7 Este 0 -- -- 99
2019-02-07 04:00:00 4 3 Nordeste 5 Nordeste 0 -- -- 98
2019-02-07 03:00:00 4.3 3 Nordeste 6 Nordeste 0 -- -- 97
2019-02-07 02:00:00 4.4 0 Calma 6 Este 0 -- -- 96
2019-02-07 01:00:00 4.7 0 Calma 8 Nordeste 0 -- -- 95
2019-02-07 00:00:00 5.2 3 Nordeste 6 Nordeste 0 -- -- 95
2019-02-06 23:00:00 5.8 4 Nordeste 8 Nordeste 0 -- -- 93
2019-02-06 22:00:00 6.7 5 Nordeste 8 Nordeste 0 -- -- 91
2019-02-06 21:00:00 7.6 5 Nordeste 8 Nordeste 0 -- -- 87
2019-02-06 20:00:00 9.7 5 Nordeste 9 Nordeste 0 -- -- 81
2019-02-06 19:00:00 14.4 3 Nordeste 8 Sudeste 0 -- -- 61
2019-02-06 18:00:00 17.8 7 Sudeste 13 Sur 0 -- -- 49
2019-02-06 17:00:00 19.4 7 Sudeste 13 Sudeste 0 -- -- 44
2019-02-06 16:00:00 19.8 6 Sur 15 Oeste 0 -- -- 49
2019-02-06 15:00:00 19.4 5 Sudoeste 13 Sudeste 0 -- -- 51
2019-02-06 14:00:00 18.1 5 Oeste 11 Sur 0 -- -- 59
2019-02-06 13:00:00 16.5 3 Oeste 8 Sudoeste 0 -- -- 68
2019-02-06 12:00:00 13.8 0 Calma 4 Sudoeste 0 -- -- 74
2019-02-06 11:00:00 9.9 0 Calma 3 Sudoeste 0 -- -- 82
2019-02-06 10:00:00 5.7 0 Calma 3 Este 0 -- -- 100
2019-02-06 09:00:00 1.8 2 Nordeste 4 Nordeste 0 -- -- 99
2019-02-06 08:00:00 1.3 3 Este 5 Nordeste 0 -- -- 98
2019-02-06 07:00:00 1.6 3 Este 5 Nordeste 0 -- -- 98
2019-02-06 06:00:00 2.1 0 Calma 5 Nordeste 0 -- -- 98
2019-02-06 05:00:00 2.1 4 Nordeste 6 Nordeste 0 -- -- 97
2019-02-06 04:00:00 2.7 0 Calma 4 Nordeste 0 -- -- 97
2019-02-06 03:00:00 3.2 2 Nordeste 4 Nordeste 0 -- -- 97
2019-02-06 02:00:00 3.6 0 Calma 5 Este 0 -- -- 97
2019-02-06 01:00:00 4.4 0 Calma 7 Nordeste 0 -- -- 96
2019-02-06 00:00:00 5.3 2 Norte 6 Nordeste 0 -- -- 96
2019-02-05 23:00:00 6.1 0 Calma 8 Nordeste 0 -- -- 95
2019-02-05 22:00:00 7 3 Este 8 Nordeste 0 -- -- 94
2019-02-05 21:00:00 8.3 4 Nordeste 8 Nordeste 0 -- -- 90
2019-02-05 20:00:00 10.2 4 Nordeste 8 Nordeste 0 -- -- 86
2019-02-05 19:00:00 14.6 0 Calma 13 Sudeste 0 -- -- 72
2019-02-05 18:00:00 16.8 8 Sudeste 14 Sur 0 -- -- 63
2019-02-05 17:00:00 17.8 8 Sudeste 17 Sudeste 0 -- -- 59
2019-02-05 16:00:00 18.9 5 Sudeste 13 Sur 0 -- -- 53
2019-02-05 15:00:00 18.2 4 Sur 11 Sudeste 0 -- -- 54
2019-02-05 14:00:00 17.5 4 Sudoeste 17 Sudoeste 0 -- -- 54
2019-02-05 13:00:00 15.9 4 Sudoeste 9 Sudoeste 0 -- -- 58
2019-02-05 12:00:00 13.3 2 Oeste 4 Oeste 0 -- -- 64
2019-02-05 11:00:00 8.7 0 Calma 4 Noroeste 0 -- -- 75
2019-02-05 10:00:00 4.9 0 Calma 6 Oeste 0 -- -- 98
2019-02-05 09:00:00 0.4 2 Nordeste 3 Nordeste 0 -- -- 99
2019-02-05 08:00:00 0.1 0 Calma 5 Nordeste 0 -- -- 98
2019-02-05 07:00:00 0.3 2 Nordeste 6 Nordeste 0 -- -- 98
2019-02-05 06:00:00 0.4 3 Nordeste 5 Este 0 -- -- 98
2019-02-05 05:00:00 0.5 4 Nordeste 6 Nordeste 0 -- -- 97
2019-02-05 04:00:00 1.1 0 Calma 8 Nordeste 0 -- -- 97
2019-02-05 03:00:00 1.1 3 Este 6 Nordeste 0 -- -- 97
2019-02-05 02:00:00 1.6 3 Este 5 Nordeste 0 -- -- 96
2019-02-05 01:00:00 2.2 3 Nordeste 6 Nordeste 0 -- -- 96
2019-02-05 00:00:00 2.9 0 Calma 6 Nordeste 0 -- -- 95
2019-02-04 23:00:00 3.4 4 Este 5 Nordeste 0 -- -- 94
2019-02-04 22:00:00 4.5 3 Norte 7 Nordeste 0 -- -- 92
2019-02-04 21:00:00 5.6 3 Nordeste 6 Nordeste 0 -- -- 88
2019-02-04 20:00:00 7.9 4 Nordeste 9 Nordeste 0 -- -- 82
2019-02-04 19:00:00 11.8 2 Este 10 Sudeste 0 -- -- 67
2019-02-04 18:00:00 14.5 7 Sudeste 15 Sudeste 0 -- -- 53
2019-02-04 17:00:00 15.6 10 Sudeste 18 Sudeste 0 -- -- 47
2019-02-04 16:00:00 16 9 Sudeste 18 Sudeste 0 -- -- 44
2019-02-04 15:00:00 16.8 8 Sudeste 17 Sudeste 0 -- -- 45
2019-02-04 14:00:00 16.1 6 Sudeste 12 Sur 0 -- -- 43
2019-02-04 13:00:00 15.2 5 Sudoeste 10 Sudoeste 0 -- -- 45
2019-02-04 12:00:00 12.2 3 Oeste 8 Sudoeste 0 -- -- 57
2019-02-04 11:00:00 8.1 2 Noroeste 5 Noroeste 0 -- -- 68
2019-02-04 10:00:00 4.5 0 Calma 6 Nordeste 0 -- -- 78
2019-02-04 09:00:00 0.2 4 Nordeste 9 Norte 0 -- -- 94
2019-02-04 08:00:00 -0.4 4 Nordeste 9 Nordeste 0 -- -- 93
2019-02-04 07:00:00 0.2 2 Este 8 Nordeste 0 -- -- 92
2019-02-04 06:00:00 0.5 4 Nordeste 8 Nordeste 0 -- -- 91
2019-02-04 05:00:00 1.9 4 Nordeste 10 Nordeste 0 -- -- 86
2019-02-04 04:00:00 3.9 6 Nordeste 13 Noroeste 0 -- -- 78
2019-02-04 03:00:00 7.8 8 Nordeste 17 Nordeste 0 -- -- 59
2019-02-04 02:00:00 6.8 7 Norte 19 Norte 0 -- -- 66
2019-02-04 01:00:00 4.3 6 Este 13 Sur 0 -- -- 78
2019-02-04 00:00:00 4.2 6 Este 14 Nordeste 0 -- -- 79
2019-02-03 23:00:00 4.5 3 Este 12 Este 0 -- -- 76
2019-02-03 22:00:00 5.5 3 Norte 14 Noroeste 0 -- -- 75
2019-02-03 21:00:00 5.5 5 Norte 9 Norte 0 -- -- 76
2019-02-03 20:00:00 8.5 5 Noroeste 14 Noroeste 0 -- -- 68
2019-02-03 19:00:00 11 8 Noroeste 23 Noroeste 0 -- -- 62
2019-02-03 18:00:00 13.4 14 Noroeste 26 Noroeste 0 -- -- 53
2019-02-03 17:00:00 14.9 13 Noroeste 24 Noroeste 0 -- -- 49
2019-02-03 16:00:00 15.3 11 Noroeste 28 Oeste 0 -- -- 48
2019-02-03 15:00:00 14.6 12 Oeste 24 Oeste 0 -- -- 55
2019-02-03 14:00:00 14.2 8 Oeste 17 Oeste 0 -- -- 47
2019-02-03 13:00:00 13.5 5 Oeste 16 Oeste 0 -- -- 45
2019-02-03 12:00:00 11.7 6 Oeste 14 Oeste 0 -- -- 53
2019-02-03 11:00:00 9.4 5 Sudoeste 10 Sudoeste 0 -- -- 60
2019-02-03 10:00:00 4.8 2 Sur 7 Nordeste 0 -- -- 85
2019-02-03 09:00:00 0.3 3 Este 7 Nordeste 0 -- -- 95
2019-02-03 08:00:00 0.3 6 Este 9 Nordeste 0 -- -- 94
2019-02-03 07:00:00 1.1 5 Este 8 Este 0 -- -- 93
2019-02-03 06:00:00 1.5 3 Norte 9 Nordeste 0 -- -- 91
2019-02-03 05:00:00 1.6 5 Nordeste 12 Nordeste 0 -- -- 91
2019-02-03 04:00:00 1.7 4 Nordeste 10 Nordeste 0 -- -- 90
2019-02-03 03:00:00 2.4 7 Este 12 Nordeste 0 -- -- 88
2019-02-03 02:00:00 2.7 7 Nordeste 12 Nordeste 0 -- -- 87
2019-02-03 01:00:00 4.6 5 Nordeste 17 Noroeste 0 -- -- 79
2019-02-03 00:00:00 6.6 4 Nordeste 11 Noroeste 0 -- -- 71
2019-02-02 23:00:00 8.7 7 Noroeste 22 Noroeste 0 -- -- 61
2019-02-02 22:00:00 9.3 12 Noroeste 21 Noroeste 0 -- -- 63
2019-02-02 21:00:00 9.9 13 Noroeste 22 Noroeste 0 -- -- 60
2019-02-02 20:00:00 10.8 15 Noroeste 37 Oeste 0 -- -- 56
2019-02-02 19:00:00 11.5 17 Noroeste 39 Noroeste 0 -- -- 51
2019-02-02 18:00:00 13.4 24 Noroeste 53 Oeste 0 -- -- 48
2019-02-02 17:00:00 13.9 23 Noroeste 49 Noroeste 0 -- -- 46
2019-02-02 16:00:00 13.9 24 Noroeste 47 Noroeste 0 -- -- 50
2019-02-02 15:00:00 14.2 27 Noroeste 50 Oeste 0 -- -- 50
2019-02-02 14:00:00 13.1 24 Noroeste 49 Noroeste 0 -- -- 52
2019-02-02 13:00:00 12.5 25 Noroeste 46 Noroeste 0 -- -- 57
2019-02-02 12:00:00 11.8 27 Noroeste 52 Noroeste 0 -- -- 57
2019-02-02 11:00:00 11 26 Noroeste 55 Noroeste 0 -- -- 63
2019-02-02 10:00:00 10.5 30 Noroeste 56 Noroeste 0 -- -- 67
2019-02-02 09:00:00 10.1 25 Noroeste 49 Oeste 0 -- -- 70
2019-02-02 08:00:00 10.9 26 Noroeste 51 Oeste 0 -- -- 68
2019-02-02 07:00:00 10.9 24 Noroeste 42 Noroeste 0 -- -- 69
2019-02-02 06:00:00 11.3 21 Noroeste 47 Noroeste 0 -- -- 68
2019-02-02 05:00:00 10.5 12 Oeste 27 Oeste 0 -- -- 75
2019-02-02 04:00:00 10.8 14 Oeste 40 Noroeste 0 -- -- 74
2019-02-02 03:00:00 10.6 18 Oeste 37 Noroeste 0 -- -- 75
2019-02-02 02:00:00 10.4 18 Noroeste 39 Oeste 0 -- -- 74
2019-02-02 01:00:00 10.5 23 Noroeste 40 Noroeste 0 -- -- 72
2019-02-02 00:00:00 10.4 20 Noroeste 52 Noroeste 0.2 -- -- 71
2019-02-01 23:00:00 11 25 Noroeste 48 Oeste 0 -- -- 76
2019-02-01 22:00:00 12.4 26 Noroeste 50 Oeste 0 -- -- 64
2019-02-01 21:00:00 12.7 21 Oeste 45 Noroeste 0 -- -- 69
2019-02-01 20:00:00 13.1 27 Oeste 50 Oeste 0 -- -- 70
2019-02-01 19:00:00 13.4 23 Oeste 47 Oeste 0 -- -- 68
2019-02-01 18:00:00 14 23 Oeste 51 Noroeste 0 -- -- 67
2019-02-01 17:00:00 15 24 Oeste 46 Oeste 0 -- -- 64
2019-02-01 16:00:00 15.4 24 Oeste 53 Oeste 0 -- -- 61
2019-02-01 15:00:00 15.8 26 Noroeste 56 Noroeste 0 -- -- 63
2019-02-01 14:00:00 15.2 28 Noroeste 61 Noroeste 0 -- -- 63
2019-02-01 13:00:00 16 27 Noroeste 53 Noroeste 0 -- -- 65
2019-02-01 12:00:00 14.9 28 Noroeste 54 Noroeste 0 -- -- 69
2019-02-01 11:00:00 13.5 25 Noroeste 55 Noroeste 0 -- -- 75
2019-02-01 10:00:00 12.2 24 Noroeste 51 Noroeste 2 -- -- 85
2019-02-01 09:00:00 14.5 23 Oeste 49 Sudoeste 14 -- -- 95
2019-02-01 08:00:00 14.8 21 Oeste 63 Oeste 7.8 -- -- 94
2019-02-01 07:00:00 14.3 15 Oeste 74 Sudoeste 10.4 -- -- 96
2019-02-01 06:00:00 14.6 27 Oeste 75 Oeste 2.2 -- -- 90
2019-02-01 05:00:00 14.6 27 Oeste 62 Oeste 0.6 -- -- 92
2019-02-01 04:00:00 14.8 32 Oeste 57 Oeste 1.6 -- -- 89
2019-02-01 03:00:00 14.8 23 Sudoeste 45 Oeste 0.2 -- -- 90
2019-02-01 02:00:00 14.8 17 Sudoeste 34 Sudoeste 0.4 -- -- 87
2019-02-01 01:00:00 14.7 19 Oeste 37 Sudoeste 0 -- -- 89
2019-02-01 00:00:00 13.8 15 Sudoeste 32 Sudoeste 0.8 -- -- 94
2019-01-31 23:00:00 13.4 10 Sudoeste 26 Oeste 0.8 -- -- 95
2019-01-31 22:00:00 13.4 16 Oeste 31 Sudoeste 1.2 -- -- 93
2019-01-31 21:00:00 13.6 8 Oeste 21 Oeste 0.4 -- -- 91
2019-01-31 20:00:00 14 5 Noroeste 28 Oeste 0 -- -- 87
2019-01-31 19:00:00 14.5 13 Noroeste 33 Oeste 0 -- -- 82
2019-01-31 18:00:00 15.2 17 Oeste 29 Sudoeste 0 -- -- 80
2019-01-31 17:00:00 15.3 15 Oeste 28 Oeste 0 -- -- 87
2019-01-31 16:00:00 15 15 Oeste 35 Oeste 0.4 -- -- 88
2019-01-31 15:00:00 15.3 16 Oeste 37 Noroeste 0.2 -- -- 84
2019-01-31 14:00:00 14 12 Noroeste 26 Noroeste 0.4 -- -- 92
2019-01-31 13:00:00 13.8 19 Oeste 36 Oeste 0.4 -- -- 91
2019-01-31 12:00:00 13.3 9 Oeste 26 Oeste 0.4 -- -- 94
2019-01-31 11:00:00 13.4 19 Oeste 34 Oeste 0.6 -- -- 93
2019-01-31 10:00:00 13.6 10 Oeste 23 Noroeste 0.4 -- -- 94
2019-01-31 09:00:00 13.1 3 Sudoeste 9 Sudoeste 0.8 -- -- 97
2019-01-31 08:00:00 13.4 9 Sudoeste 18 Oeste 1.6 -- -- 95
2019-01-31 07:00:00 13.6 8 Oeste 22 Oeste 0 -- -- 92
2019-01-31 06:00:00 13.3 10 Oeste 22 Oeste 0.2 -- -- 93
2019-01-31 05:00:00 13.1 0 Calma 15 Noroeste 0.8 -- -- 95
2019-01-31 04:00:00 13.5 12 Oeste 26 Oeste 0.6 -- -- 90
2019-01-31 03:00:00 13.6 9 Oeste 18 Oeste 0.2 -- -- 91
2019-01-31 02:00:00 13.6 10 Oeste 18 Oeste 0 -- -- 89
2019-01-31 01:00:00 12.8 2 Noroeste 22 Noroeste 0 -- -- 94
2019-01-31 00:00:00 12.3 12 Noroeste 20 Noroeste 1 -- -- 99
2019-01-30 23:00:00 11.4 3 Sudoeste 6 Este 0.4 -- -- 98
2019-01-30 22:00:00 11.8 3 Nordeste 7 Nordeste 0.6 -- -- 96
2019-01-30 21:00:00 12.5 2 Oeste 5 Sur 0.4 -- -- 93
2019-01-30 20:00:00 13.1 0 Calma 7 Noroeste 0 -- -- 86
2019-01-30 19:00:00 13.9 2 Noroeste 16 Norte 0 -- -- 78
2019-01-30 18:00:00 14.7 6 Noroeste 23 Noroeste 0 -- -- 74
2019-01-30 17:00:00 15.3 11 Noroeste 27 Oeste 0 -- -- 67
2019-01-30 16:00:00 15.9 16 Noroeste 27 Noroeste 0 -- -- 60
2019-01-30 15:00:00 16.8 16 Noroeste 29 Noroeste 0 -- -- 57
2019-01-30 14:00:00 16.5 19 Noroeste 40 Noroeste 0 -- -- 58
2019-01-30 13:00:00 15.6 21 Noroeste 40 Noroeste 0 -- -- 60
2019-01-30 12:00:00 14.3 20 Noroeste 36 Noroeste 0 -- -- 69
2019-01-30 11:00:00 14.3 13 Noroeste 31 Noroeste 0 -- -- 77
2019-01-30 10:00:00 13.2 9 Noroeste 33 Noroeste 0 -- -- 88
2019-01-30 09:00:00 12.5 10 Noroeste 23 Oeste 0 -- -- 92
2019-01-30 08:00:00 12 4 Noroeste 15 Oeste 0 -- -- 94
2019-01-30 07:00:00 12.4 10 Noroeste 24 Oeste 0 -- -- 90
2019-01-30 06:00:00 12.6 12 Oeste 27 Oeste 0 -- -- 85
2019-01-30 05:00:00 12.4 9 Oeste 19 Sudoeste 0 -- -- 84
2019-01-30 04:00:00 12 2 Sur 6 Sur 0 -- -- 82
2019-01-30 03:00:00 12.7 3 Oeste 15 Noroeste 0 -- -- 77
2019-01-30 02:00:00 12.7 4 Noroeste 15 Noroeste 0 -- -- 77
2019-01-30 01:00:00 13 10 Oeste 24 Noroeste 0 -- -- 75
2019-01-30 00:00:00 13.5 8 Noroeste 40 Noroeste 0 -- -- 73
2019-01-29 23:00:00 14.3 17 Noroeste 28 Oeste 0 -- -- 71
2019-01-29 22:00:00 13.9 6 Oeste 15 Oeste 0 -- -- 76
2019-01-29 21:00:00 14.2 9 Oeste 17 Sudoeste 0 -- -- 77
2019-01-29 20:00:00 13.9 6 Sudoeste 22 Oeste 0 -- -- 78
2019-01-29 19:00:00 13.9 7 Sudoeste 23 Sudoeste 0 -- -- 76
2019-01-29 18:00:00 13.8 11 Oeste 23 Oeste 0 -- -- 76
2019-01-29 17:00:00 13.8 6 Sudoeste 22 Oeste 0 -- -- 77
2019-01-29 16:00:00 13.7 8 Noroeste 31 Noroeste 0 -- -- 74
2019-01-29 15:00:00 13.3 9 Noroeste 30 Noroeste 0 -- -- 75
2019-01-29 14:00:00 14 17 Noroeste 42 Noroeste 0 -- -- 70
2019-01-29 13:00:00 14.8 28 Noroeste 47 Noroeste 0 -- -- 63
2019-01-29 12:00:00 13.8 28 Noroeste 45 Noroeste 0 -- -- 66
2019-01-29 11:00:00 12.8 19 Noroeste 35 Noroeste 0 -- -- 71
2019-01-29 10:00:00 12.4 11 Noroeste 31 Noroeste 0 -- -- 73
2019-01-29 09:00:00 12.2 8 Noroeste 28 Oeste 0 -- -- 73
2019-01-29 08:00:00 12.3 14 Noroeste 40 Noroeste 0 -- -- 78
2019-01-29 07:00:00 12 12 Noroeste 30 Noroeste 0 -- -- 79
2019-01-29 06:00:00 11.9 4 Noroeste 25 Norte 0 -- -- 80
2019-01-29 05:00:00 11.8 7 Noroeste 17 Noroeste 0 -- -- 80
2019-01-29 04:00:00 11.9 7 Norte 14 Norte 0 -- -- 81
2019-01-29 03:00:00 12.1 4 Oeste 31 Noroeste 0 -- -- 79
2019-01-29 02:00:00 12.5 10 Noroeste 19 Noroeste 0 -- -- 79
2019-01-29 01:00:00 12.5 7 Oeste 17 Noroeste 0 -- -- 78
2019-01-29 00:00:00 12.5 8 Noroeste 24 Noroeste 0 -- -- 76
2019-01-28 23:00:00 13 17 Noroeste 37 Norte 0 -- -- 72
2019-01-28 22:00:00 13.3 20 Noroeste 43 Noroeste 0 -- -- 70
2019-01-28 21:00:00 13.8 21 Noroeste 41 Noroeste 0 -- -- 67
2019-01-28 20:00:00 14.1 18 Noroeste 35 Oeste 0 -- -- 67
2019-01-28 19:00:00 13.7 14 Noroeste 47 Noroeste 0 -- -- 70
2019-01-28 18:00:00 14.3 31 Noroeste 55 Noroeste 0 -- -- 63
2019-01-28 17:00:00 15.9 27 Noroeste 45 Oeste 0 -- -- 56
2019-01-28 16:00:00 15.5 30 Noroeste 59 Noroeste 0 -- -- 52
2019-01-28 15:00:00 15.7 28 Noroeste 45 Oeste 0 -- -- 52
2019-01-28 14:00:00 16.1 24 Oeste 37 Oeste 0 -- -- 52
2019-01-28 13:00:00 15.7 14 Noroeste 31 Noroeste 0 -- -- 51
2019-01-28 12:00:00 14.3 17 Noroeste 31 Noroeste 0 -- -- 52
2019-01-28 11:00:00 13.4 11 Noroeste 27 Noroeste 0 -- -- 53
2019-01-28 10:00:00 10.8 16 Noroeste 28 Noroeste 0 -- -- 65
2019-01-28 09:00:00 8.7 9 Noroeste 17 Nordeste 0 -- -- 71
2019-01-28 08:00:00 9.1 14 Norte 23 Norte 0 -- -- 70
2019-01-28 07:00:00 7.4 5 Nordeste 13 Norte 0 -- -- 78
2019-01-28 06:00:00 6.6 4 Este 8 Este 0 -- -- 83
2019-01-28 05:00:00 6 3 Nordeste 8 Noroeste 0 -- -- 86
2019-01-28 04:00:00 7 3 Sur 8 Sudeste 0 -- -- 83
2019-01-28 03:00:00 8.8 2 Sudoeste 18 Norte 0 -- -- 76
2019-01-28 02:00:00 9.6 10 Norte 19 Norte 0 -- -- 74
2019-01-28 01:00:00 9.2 6 Norte 13 Norte 0 -- -- 76
2019-01-28 00:00:00 9.5 4 Este 18 Noroeste 0 -- -- 75
2019-01-27 23:00:00 11 11 Noroeste 27 Oeste 0 -- -- 69
2019-01-27 22:00:00 11.8 11 Oeste 31 Oeste 0 -- -- 67
2019-01-27 21:00:00 12.6 14 Oeste 31 Oeste 0 -- -- 65
2019-01-27 20:00:00 13.1 14 Noroeste 36 Noroeste 0 -- -- 64
2019-01-27 19:00:00 13.9 16 Noroeste 38 Noroeste 0 -- -- 64
2019-01-27 18:00:00 15.1 18 Noroeste 51 Noroeste 0 -- -- 60
2019-01-27 17:00:00 15.7 17 Noroeste 50 Noroeste 0 -- -- 64
2019-01-27 16:00:00 16 26 Noroeste 44 Noroeste 0 -- -- 58
2019-01-27 15:00:00 15.8 22 Noroeste 38 Noroeste 0 -- -- 57
2019-01-27 14:00:00 15.4 20 Oeste 43 Oeste 0 -- -- 64
2019-01-27 13:00:00 15.4 26 Oeste 45 Oeste 0 -- -- 69
2019-01-27 12:00:00 16.9 18 Oeste 30 Oeste 0 -- -- 63
2019-01-27 11:00:00 16.1 15 Oeste 22 Oeste 0 -- -- 65
2019-01-27 10:00:00 13.6 9 Noroeste 19 Noroeste 0 -- -- 81
2019-01-27 09:00:00 8.8 0 Calma 9 Norte 0 -- -- 96
2019-01-27 08:00:00 8.4 4 Norte 9 Norte 0 -- -- 97
2019-01-27 07:00:00 8 0 Calma 8 Noroeste 0 -- -- 95
2019-01-27 06:00:00 8.4 3 Nordeste 9 Nordeste 0 -- -- 92
2019-01-27 05:00:00 9.8 5 Norte 15 Noroeste 0 -- -- 90
2019-01-27 04:00:00 7.2 6 Este 14 Nordeste 0 -- -- 95
2019-01-27 03:00:00 8.3 5 Sudoeste 21 Oeste 0 -- -- 98
2019-01-27 02:00:00 6.4 3 Nordeste 13 Nordeste 0 -- -- 97
2019-01-27 01:00:00 7.8 6 Nordeste 10 Este 0 -- -- 96
2019-01-27 00:00:00 7.6 3 Este 8 Nordeste 0 -- -- 97
2019-01-26 23:00:00 7.7 5 Nordeste 10 Nordeste 0 -- -- 96
2019-01-26 22:00:00 8.5 7 Este 10 Nordeste 0 -- -- 94
2019-01-26 21:00:00 9.7 8 Nordeste 10 Nordeste 0 -- -- 92
2019-01-26 20:00:00 11.3 6 Nordeste 9 Nordeste 0 -- -- 87
2019-01-26 19:00:00 15.2 3 Sudeste 8 Sudeste 0 -- -- 75
2019-01-26 18:00:00 18.2 5 Sudeste 13 Sudeste 0 -- -- 63
2019-01-26 17:00:00 19.5 9 Sudeste 18 Sudeste 0 -- -- 56
2019-01-26 16:00:00 20.1 10 Sudeste 20 Sudeste 0 -- -- 51
2019-01-26 15:00:00 21.3 5 Sur 14 Sudoeste 0 -- -- 51
2019-01-26 14:00:00 20.5 4 Sudoeste 9 Sur 0 -- -- 50
2019-01-26 13:00:00 19 4 Este 9 Sudeste 0 -- -- 54
2019-01-26 12:00:00 16.4 0 Calma 4 Oeste 0 -- -- 55
2019-01-26 11:00:00 12.5 0 Calma 2 Sudoeste 0 -- -- 70
2019-01-26 10:00:00 7.8 0 Calma 4 Sudeste 0 -- -- 88
2019-01-26 09:00:00 3.5 3 Este 8 Nordeste 0 -- -- 97
2019-01-26 08:00:00 3.9 0 Calma 6 Norte 0 -- -- 95
2019-01-26 07:00:00 4 5 Nordeste 8 Nordeste 0 -- -- 96
2019-01-26 06:00:00 4.5 3 Este 8 Nordeste 0 -- -- 93
2019-01-26 05:00:00 5.1 0 Calma 9 Este 0 -- -- 92
2019-01-26 04:00:00 5.6 4 Este 8 Este 0 -- -- 91
2019-01-26 03:00:00 6.9 6 Nordeste 10 Nordeste 0 -- -- 88
2019-01-26 02:00:00 7.1 4 Este 13 Nordeste 0 -- -- 87
2019-01-26 01:00:00 7.9 6 Nordeste 15 Nordeste 0 -- -- 84
2019-01-26 00:00:00 8.5 9 Nordeste 14 Nordeste 0 -- -- 82
2019-01-25 23:00:00 9.4 5 Este 12 Nordeste 0 -- -- 80
2019-01-25 22:00:00 10.6 5 Nordeste 10 Nordeste 0 -- -- 78
2019-01-25 21:00:00 11.7 2 Sudeste 12 Nordeste 0 -- -- 73
2019-01-25 20:00:00 15 12 Norte 19 Norte 0 -- -- 63
2019-01-25 19:00:00 18.3 7 Norte 22 Norte 0 -- -- 53
2019-01-25 18:00:00 21.1 15 Norte 26 Norte 0 -- -- 44
2019-01-25 17:00:00 23.3 8 Norte 21 Noroeste 0 -- -- 41
2019-01-25 16:00:00 23.9 3 Sudoeste 15 Sudeste 0 -- -- 41
2019-01-25 15:00:00 23 9 Este 19 Este 0 -- -- 44
2019-01-25 14:00:00 23.3 9 Nordeste 25 Noroeste 0 -- -- 39
2019-01-25 13:00:00 21.4 18 Norte 39 Norte 0 -- -- 43
2019-01-25 12:00:00 20.2 17 Norte 29 Norte 0 -- -- 47
2019-01-25 11:00:00 18.5 5 Norte 23 Norte 0 -- -- 57
2019-01-25 10:00:00 14.5 15 Norte 24 Noroeste 0 -- -- 74
2019-01-25 09:00:00 7.5 4 Este 12 Nordeste 0 -- -- 96
2019-01-25 08:00:00 6.3 7 Este 10 Nordeste 0 -- -- 98
2019-01-25 07:00:00 6.7 6 Este 10 Nordeste 0 -- -- 97
2019-01-25 06:00:00 7.1 8 Este 10 Este 0 -- -- 96
2019-01-25 05:00:00 7.4 8 Este 12 Nordeste 0 -- -- 95
2019-01-25 04:00:00 8.9 4 Sudeste 9 Sur 0 -- -- 92
2019-01-25 03:00:00 10.8 3 Nordeste 12 Sur 0 -- -- 86
2019-01-25 02:00:00 9.4 3 Sudeste 12 Noroeste 0 -- -- 89
2019-01-25 01:00:00 10.1 4 Sudeste 15 Noroeste 0 -- -- 92
2019-01-25 00:00:00 11.6 5 Noroeste 13 Oeste 0 -- -- 85
2019-01-24 23:00:00 11.4 7 Norte 11 Norte 0 -- -- 84
2019-01-24 22:00:00 11.3 5 Noroeste 11 Norte 0 -- -- 84
2019-01-24 21:00:00 11.7 4 Norte 9 Noroeste 0 -- -- 83
2019-01-24 20:00:00 13.3 4 Noroeste 9 Oeste 0 -- -- 78
2019-01-24 19:00:00 15.7 8 Oeste 21 Noroeste 0 -- -- 68
2019-01-24 18:00:00 17.6 14 Noroeste 26 Noroeste 0 -- -- 63
2019-01-24 17:00:00 18.3 18 Noroeste 40 Noroeste 0 -- -- 60
2019-01-24 16:00:00 18.3 21 Noroeste 39 Oeste 0 -- -- 61
2019-01-24 15:00:00 18.1 23 Noroeste 40 Noroeste 0 -- -- 61
2019-01-24 14:00:00 17.8 21 Noroeste 37 Noroeste 0 -- -- 62
2019-01-24 13:00:00 17.3 24 Noroeste 40 Noroeste 0 -- -- 67
2019-01-24 12:00:00 16.1 20 Noroeste 33 Oeste 0 -- -- 70
2019-01-24 11:00:00 15.1 16 Noroeste 29 Oeste 0 -- -- 73
2019-01-24 10:00:00 13.9 23 Noroeste 37 Noroeste 0 -- -- 77
2019-01-24 09:00:00 13.3 13 Noroeste 23 Noroeste 0 -- -- 80
2019-01-24 08:00:00 13.6 17 Noroeste 33 Noroeste 0 -- -- 78
2019-01-24 07:00:00 13.5 14 Noroeste 30 Noroeste 0 -- -- 78
2019-01-24 06:00:00 13.3 16 Noroeste 34 Oeste 0 -- -- 79
2019-01-24 05:00:00 13.7 17 Noroeste 36 Norte 0 -- -- 77
2019-01-24 04:00:00 14 16 Noroeste 26 Noroeste 0 -- -- 76
2019-01-24 03:00:00 14.1 10 Noroeste 21 Noroeste 0 -- -- 76
2019-01-24 02:00:00 13.9 11 Noroeste 28 Noroeste 0 -- -- 76
2019-01-24 01:00:00 13.5 5 Noroeste 14 Noroeste 0 -- -- 77
2019-01-24 00:00:00 13.7 8 Noroeste 26 Oeste 0 -- -- 76